• Join FlightAware (Why Join?)
  • Login
  • US Flag 
07:49AM EDT


 

Airport Tracker/Info


-or-


 

Live Flight TrackerFlight Track Log ✈ UAL109 ✈ 12-Jul-2013 ✈ EGPH / EDI - KEWR

Flight Track Log - Related Links

Times and Time Zones

All times are in EDT time to prevent confusion due to time zone crossing. See the UAL109 flight status page for this flight to view local times or setup timezone preferences in your user account.

Time Position Orientation Groundspeed Altitude Reporting Facility
EDT Latitude Longitude Course Direction KTS MPH feet Rate Location/Type
07:03AM 55.9420 -3.3620 48° Northeast 8 9  Level FlightAware
07:03AM 55.9430 -3.3610 29° Northeast 10 12  Level FlightAware
07:04AM 55.9430 -3.3590 90° East 11 13  Level FlightAware
07:06AM 56.0063 -3.7167 283° West  Level FlightAware Approximate
07:07AM 56.0302 -3.9079 283° West  Level FlightAware Approximate
07:08AM 56.0681 -4.0914 288° West  Level FlightAware Approximate
07:08AM 55.9440 -3.3640 288° West 105 121  Level FlightAware
07:09AM 55.9360 -3.3890 240° Southwest 175 201 100 1,920 Climbing FlightAware
07:09AM 55.9240 -3.4220 237° Southwest 168 193 1,700 2,700 Climbing FlightAware
07:10AM 55.9110 -3.4590 238° Southwest 178 205 2,700 1,800 Climbing FlightAware
07:10AM 55.9000 -3.4930 240° Southwest 201 231 3,400 1,200 Climbing FlightAware
07:11AM 55.8900 -3.5680 257° West 243 280 4,400 1,980 Climbing FlightAware
07:12AM 55.8800 -3.6840 261° West 262 302 6,700 3,060 Climbing FlightAware
07:12AM 55.8740 -3.7430 260° West 264 304 8,100 2,880 Climbing FlightAware
07:13AM 55.8670 -3.8110 260° West 265 305 9,600 2,220 Climbing FlightAware
07:13AM 55.8600 -3.8850 260° West 284 327 10,600 1,380 Climbing FlightAware
07:14AM 55.8586 -3.9693 260° West 340 391 11,200 1,320 Climbing FlightAware UK
07:14AM 55.8500 -3.9870 260° West 322 371 11,500 2,160 Climbing FlightAware
07:15AM 55.8410 -4.0760 260° West 330 380 12,800 2,100 Climbing FlightAware
07:15AM 55.8210 -4.2030 254° West 351 404 14,300 2,280 Climbing FlightAware
07:16AM 55.7890 -4.3610 250° West 355 409 16,800 2,340 Climbing FlightAware
07:17AM 55.7650 -4.4760 250° West 361 415 18,200 1,920 Climbing FlightAware
07:18AM 55.7420 -4.5890 250° West 369 425 19,500 1,800 Climbing FlightAware
07:18AM 55.7224 -4.7056 250° West 398 458 20,700 1,800 Climbing FlightAware UK
07:18AM 55.7160 -4.7170 250° West 380 437 20,800 1,680 Climbing FlightAware
07:19AM 55.6940 -4.8240 250° West 388 447 21,800 1,680 Climbing FlightAware
07:20AM 55.6720 -4.9310 250° West 393 452 22,800 1,620 Climbing FlightAware
07:20AM 55.6552 -5.0281 250° West 416 479 23,700 1,560 Climbing FlightAware UK
07:20AM 55.6430 -5.0700 250° West 401 461 24,000 1,500 Climbing FlightAware
07:21AM 55.6180 -5.1930 250° West 408 470 25,000 960 Climbing FlightAware
07:22AM 55.5880 -5.3370 250° West 434 499 25,400 600 Climbing FlightAware
07:22AM 55.5590 -5.4770 250° West 449 517 25,900 900 Climbing FlightAware
07:23AM 55.5260 -5.6320 249° West 461 531 26,700 1,260 Climbing FlightAware
07:24AM 55.5030 -5.7447 249° West 474 545 27,600 1,500 Climbing FlightAware UK
07:24AM 55.5000 -5.7560 249° West 461 531 27,600 1,560 Level FlightAware
07:25AM 55.4670 -5.9110 249° West 459 528 28,800 1,500 Climbing FlightAware
07:25AM 55.4400 -6.0360 249° West 459 528 29,600 1,440 Climbing FlightAware
07:26AM 55.4100 -6.1740 249° West 457 526 30,600 1,380 Climbing FlightAware
07:26AM 55.3790 -6.3150 249° West 457 526 31,500 1,260 Climbing FlightAware
07:27AM 55.3530 -6.4284 249° West 466 536 32,300 1,200 Climbing FlightAware UK
07:27AM 55.3490 -6.4510 249° West 454 522 32,300 1,140 Level FlightAware
07:28AM 55.3200 -6.5860 249° West 455 524 33,100 1,200 Climbing FlightAware
07:28AM 55.2890 -6.7260 249° West 452 520 33,900 1,140 Climbing FlightAware
07:29AM 55.2611 -6.8354 249° West 460 529 34,600 1,200 Climbing FlightAware UK
07:29AM 55.2590 -6.8590 249° West 449 517 34,700 480 Climbing FlightAware
07:30AM 55.2240 -7.0130 248° West 450 518 35,000 180 Climbing FlightAware
07:31AM 55.1930 -7.1470 248° West 448 516 35,000  Level FlightAware
07:31AM 55.1638 -7.2582 248° West 460 529 35,000  Level FlightAware UK
07:31AM 55.1580 -7.3010 248° West 446 513 35,000  Level FlightAware
07:32AM 55.1280 -7.4320 248° West 445 512 35,000  Level FlightAware
07:33AM 55.0970 -7.5660 248° West 443 510 35,000  Level FlightAware
07:33AM 55.0690 -7.6840 248° West 442 509 35,000  Level FlightAware
07:33AM 55.0659 -7.6759 248° West 458 527 35,000  Level FlightAware UK
07:34AM 55.0424 -7.7745 248° West 456 525 35,000  Level FlightAware UK
07:34AM 55.0350 -7.8310 248° West 441 507 35,000  Level FlightAware
07:35AM 55.0030 -7.9640 247° West 440 506 35,000  Level FlightAware
07:35AM 54.9719 -8.0692 247° West 454 522 35,000  Level FlightAware UK
07:35AM 54.9680 -8.1110 247° West 439 505 35,000  Level FlightAware
07:36AM 54.9370 -8.2430 248° West 439 505 35,000  Level FlightAware
07:37AM 54.9060 -8.3720 248° West 439 505 35,000  Level FlightAware
07:37AM 54.9008 -8.3620 248° West 456 525 35,000  Level FlightAware UK
07:37AM 54.8771 -8.4594 248° West 456 525 35,000  Level FlightAware UK
07:37AM 54.8760 -8.4930 248° West 438 504 35,000  Level FlightAware
07:38AM 54.8370 -8.6500 247° West 439 505 35,000  Level FlightAware
07:39AM 54.8003 -8.7696 247° West 458 527 35,000  Level FlightAware UK
07:39AM 54.8010 -8.8000 247° West 438 504 35,000  Level FlightAware
07:40AM 54.7680 -8.9320 247° West 442 509 35,000  Level FlightAware
07:40AM 54.7360 -9.0590 246° West 441 507 35,000  Level FlightAware
07:41AM 54.7000 -9.2020 247° West 442 509 35,000  Level FlightAware
07:42AM 54.6700 -9.3180 246° West 441 507 35,000  Level FlightAware
07:42AM 54.6340 -9.4590 246° West 441 507 35,000  Level FlightAware
07:43AM 54.5960 -9.6060 246° West 441 507 35,000  Level FlightAware
07:44AM 54.5630 -9.7330 246° West 441 507 35,000  Level FlightAware
07:44AM 54.5250 -9.8760 245° Southwest 441 507 35,000  Level FlightAware
07:45AM 54.4910 -10.0030 245° Southwest 437 503 35,000  Level FlightAware
07:46AM 54.4580 -10.1290 246° West 437 503 35,000  Level FlightAware
07:47AM 54.4190 -10.2740 245° Southwest 437 503 35,000  Level FlightAware
07:47AM 54.3850 -10.3990 245° Southwest 437 503 35,000  Level FlightAware
07:48AM 54.3450 -10.5440 245° Southwest 437 503 35,000  Level FlightAware
07:49AM 54.3100 -10.6730 245° Southwest 436 502 35,000  Level FlightAware
07:49AM 54.2720 -10.8120 245° Southwest 436 502 35,000  Level FlightAware
07:50AM 54.2380 -10.9350 245° Southwest 436 502 35,000  Level FlightAware
07:51AM 54.2020 -11.0620 244° Southwest 436 502 35,000  Level FlightAware
07:51AM 54.1640 -11.1990 245° Southwest 435 501 35,000  Level FlightAware
07:52AM 54.1410 -11.2800 244° Southwest 439 505 35,000  Level FlightAware
07:53AM 54.1060 -11.4050 245° Southwest 438 504 35,000  Level FlightAware
07:53AM 54.0650 -11.5480 244° Southwest 438 504 35,000  Level FlightAware
07:54AM 54.0300 -11.6670 243° Southwest 437 503 35,000  Level FlightAware
07:55AM 53.9940 -11.7940 244° Southwest 437 503 35,000  Level FlightAware
07:55AM 53.9550 -11.9290 244° Southwest 437 503 35,000  Level FlightAware
07:56AM 53.9140 -12.0670 243° Southwest 436 502 35,000  Level FlightAware
07:57AM 53.8830 -12.1740 244° Southwest 436 502 35,000  Level FlightAware
07:57AM 53.8420 -12.3110 243° Southwest 436 502 35,000  Level FlightAware
07:58AM 53.8050 -12.4350 243° Southwest 436 502 35,000  Level FlightAware
07:59AM 53.7650 -12.5690 243° Southwest 437 503 35,000  Level FlightAware
08:00AM 53.7010 -12.7830 243° Southwest 434 499 35,000  Level FlightAware
08:01AM 53.6610 -12.9140 243° Southwest 433 498 35,000  Level FlightAware
08:01AM 53.6340 -13.0030 243° Southwest 437 503 35,000  Level FlightAware
08:02AM 53.5860 -13.1580 242° Southwest 434 499 35,000  Level FlightAware
08:03AM 53.5480 -13.2860 243° Southwest 434 499 35,000  Level FlightAware
08:04AM 53.5020 -13.4290 242° Southwest 35,000  Level FlightAware
08:05AM 53.4410 -13.6250 242° Southwest 432 497 35,000  Level FlightAware
08:06AM 53.3930 -13.7790 242° Southwest 431 496 35,000  Level FlightAware
08:06AM 53.3520 -13.9060 242° Southwest 431 496 35,000  Level FlightAware
08:07AM 53.3140 -14.0250 242° Southwest 430 495 35,000  Level FlightAware
08:08AM 53.2740 -14.1510 242° Southwest 430 495 35,000  Level FlightAware
08:08AM 53.2460 -14.2410 243° Southwest 430 495 35,000  Level FlightAware
08:09AM 53.2070 -14.3600 241° Southwest 430 495 35,000  Level FlightAware
08:10AM 53.1780 -14.4530 243° Southwest 430 495 35,000  Level FlightAware
08:10AM 53.1490 -14.5420 242° Southwest 430 495 35,000  Level FlightAware
08:11AM 53.1220 -14.6270 242° Southwest 430 495 35,000  Level FlightAware
08:12AM 53.0840 -14.7460 242° Southwest 430 495 35,000  Level FlightAware
08:12AM 53.0560 -14.8360 243° Southwest 430 495 35,000  Level FlightAware
08:13AM 53.0180 -14.9550 242° Southwest 430 495 35,000  Level FlightAware
08:14AM 52.9890 -15.0440 242° Southwest 430 495 35,000  Level FlightAware
08:15AM 52.9510 -15.1630 242° Southwest 430 495 35,000  Level FlightAware
08:16AM 52.9040 -15.3090 242° Southwest 430 495 35,000  Level FlightAware
08:16AM 52.8750 -15.3980 242° Southwest 430 495 35,000  Level FlightAware
08:19AM 52.9063 -15.8292 277° West  Level Estimated
08:20AM 52.9193 -16.0141 277° West  Level Estimated
08:21AM 52.9320 -16.1992 277° West  Level Estimated
08:22AM 52.9443 -16.3844 276° West  Level Estimated
08:23AM 52.9564 -16.5697 276° West  Level Estimated
08:24AM 52.9682 -16.7551 276° West  Level Estimated
08:25AM 52.9797 -16.9406 276° West  Level Estimated
08:26AM 52.9910 -17.1262 276° West  Level Estimated
08:27AM 53.0019 -17.3118 276° West  Level Estimated
08:28AM 53.0125 -17.4976 276° West  Level Estimated
08:29AM 53.0229 -17.6835 275° West  Level Estimated
08:30AM 53.0330 -17.8695 275° West  Level Estimated
08:31AM 53.0428 -18.0555 275° West  Level Estimated
08:32AM 53.0522 -18.2416 275° West  Level Estimated
08:33AM 53.0614 -18.4278 275° West  Level Estimated
08:34AM 53.0703 -18.6141 275° West  Level Estimated
08:35AM 53.0789 -18.8005 274° West  Level Estimated
08:36AM 53.0873 -18.9869 274° West  Level Estimated
08:37AM 53.0953 -19.1734 274° West  Level Estimated
08:38AM 53.1030 -19.3600 274° West  Level Estimated
08:39AM 53.1105 -19.5466 274° West  Level Estimated
08:39AM 53.0000 -20.0000 274° West 424 488 35,000  Level ETMS Enhanced Traffic Management System
08:40AM 53.1176 -19.7333 274° West  Level Estimated
08:41AM 53.1245 -19.9201 274° West  Level Estimated
08:42AM 53.1311 -20.1069 273° West  Level Estimated
08:43AM 53.1373 -20.2938 273° West  Level Estimated
08:44AM 53.1433 -20.4807 273° West  Level Estimated
08:45AM 53.0435 -21.1739 273° West 424 488 35,000  Level FlightAware Transoceanic
08:46AM 53.0497 -21.3698 273° West 424 488 35,000  Level FlightAware Transoceanic
08:47AM 53.0555 -21.5657 273° West 424 488 35,000  Level FlightAware Transoceanic
08:48AM 53.0610 -21.7617 273° West 424 488 35,000  Level FlightAware Transoceanic
08:49AM 53.0661 -21.9577 272° West 424 488 35,000  Level FlightAware Transoceanic
08:50AM 53.0710 -22.1537 272° West 424 488 35,000  Level FlightAware Transoceanic
08:51AM 53.0755 -22.3498 272° West 424 488 35,000  Level FlightAware Transoceanic
08:52AM 53.0797 -22.5460 272° West 424 488 35,000  Level FlightAware Transoceanic
08:53AM 53.0836 -22.7422 272° West 424 488 35,000  Level FlightAware Transoceanic
08:54AM 53.0871 -22.9384 272° West 424 488 35,000  Level FlightAware Transoceanic
08:55AM 53.0904 -23.1346 271° West 424 488 35,000  Level FlightAware Transoceanic
08:56AM 53.0933 -23.3309 271° West 424 488 35,000  Level FlightAware Transoceanic
08:57AM 53.0959 -23.5272 271° West 424 488 35,000  Level FlightAware Transoceanic
08:58AM 53.0981 -23.7236 271° West 424 488 35,000  Level FlightAware Transoceanic
08:59AM 53.1001 -23.9199 271° West 424 488 35,000  Level FlightAware Transoceanic
09:00AM 53.1017 -24.1163 271° West 424 488 35,000  Level FlightAware Transoceanic
09:01AM 53.1030 -24.3126 271° West 424 488 35,000  Level FlightAware Transoceanic
09:02AM 53.1039 -24.5090 270° West 424 488 35,000  Level FlightAware Transoceanic
09:03AM 53.1046 -24.7054 270° West 424 488 35,000  Level FlightAware Transoceanic
09:04AM 53.1049 -24.9018 270° West 424 488 35,000  Level FlightAware Transoceanic
09:05AM 53.1049 -25.0982 270° West 424 488 35,000  Level FlightAware Transoceanic
09:06AM 53.1046 -25.2946 270° West 424 488 35,000  Level FlightAware Transoceanic
09:07AM 53.1039 -25.4910 270° West 424 488 35,000  Level FlightAware Transoceanic
09:08AM 53.1030 -25.6874 269° West 424 488 35,000  Level FlightAware Transoceanic
09:09AM 53.1017 -25.8837 269° West 424 488 35,000  Level FlightAware Transoceanic
09:10AM 53.1001 -26.0801 269° West 424 488 35,000  Level FlightAware Transoceanic
09:11AM 53.0981 -26.2764 269° West 424 488 35,000  Level FlightAware Transoceanic
09:12AM 53.0959 -26.4728 269° West 424 488 35,000  Level FlightAware Transoceanic
09:13AM 53.0933 -26.6691 269° West 424 488 35,000  Level FlightAware Transoceanic
09:14AM 53.0904 -26.8654 269° West 424 488 35,000  Level FlightAware Transoceanic
09:15AM 53.0871 -27.0616 268° West 424 488 35,000  Level FlightAware Transoceanic
09:16AM 53.0836 -27.2578 268° West 424 488 35,000  Level FlightAware Transoceanic
09:17AM 53.0797 -27.4540 268° West 424 488 35,000  Level FlightAware Transoceanic
09:18AM 53.0755 -27.6502 268° West 424 488 35,000  Level FlightAware Transoceanic
09:19AM 53.0710 -27.8463 268° West 424 488 35,000  Level FlightAware Transoceanic
09:20AM 53.0661 -28.0423 268° West 424 488 35,000  Level FlightAware Transoceanic
09:21AM 53.0610 -28.2383 267° West 424 488 35,000  Level FlightAware Transoceanic
09:22AM 53.0555 -28.4343 267° West 424 488 35,000  Level FlightAware Transoceanic
09:23AM 53.0497 -28.6302 267° West 424 488 35,000  Level FlightAware Transoceanic
09:24AM 53.0435 -28.8261 267° West 424 488 35,000  Level FlightAware Transoceanic
09:25AM 53.0371 -29.0219 267° West 424 488 35,000  Level FlightAware Transoceanic
09:26AM 53.0303 -29.2177 267° West 424 488 35,000  Level FlightAware Transoceanic
09:27AM 53.0232 -29.4133 266° West 424 488 35,000  Level FlightAware Transoceanic
09:28AM 53.0158 -29.6090 266° West 424 488 35,000  Level FlightAware Transoceanic
09:29AM 53.0081 -29.8045 266° West 424 488 35,000  Level FlightAware Transoceanic
09:30AM 52.9999 -30.0024 266° West  Level FlightAware Approximate
09:31AM 52.9993 -30.0047 255° West  Level FlightAware Approximate
09:32AM 52.9691 -30.1965 255° West  Level FlightAware Approximate
09:33AM 52.9386 -30.3881 255° West  Level FlightAware Approximate
09:34AM 52.9078 -30.5794 255° West  Level FlightAware Approximate
09:35AM 52.8766 -30.7704 255° West  Level FlightAware Approximate
09:36AM 52.8452 -30.9611 255° West  Level FlightAware Approximate
09:37AM 52.8135 -31.1516 255° West  Level FlightAware Approximate
09:38AM 52.7815 -31.3418 255° West  Level FlightAware Approximate
09:39AM 52.7491 -31.5317 254° West  Level FlightAware Approximate
09:40AM 52.7165 -31.7213 254° West  Level FlightAware Approximate
09:41AM 52.6835 -31.9106 254° West  Level FlightAware Approximate
09:42AM 52.6503 -32.0997 254° West  Level FlightAware Approximate
09:43AM 52.6168 -32.2884 254° West  Level FlightAware Approximate
09:44AM 52.5829 -32.4769 254° West  Level FlightAware Approximate
09:45AM 52.5496 -32.6655 254° West  Level FlightAware Approximate
09:46AM 52.5169 -32.8542 254° West  Level FlightAware Approximate
09:47AM 52.4838 -33.0426 254° West  Level FlightAware Approximate
09:48AM 52.4505 -33.2308 254° West  Level FlightAware Approximate
09:49AM 52.4169 -33.4186 254° West  Level FlightAware Approximate
09:50AM 52.3829 -33.6062 254° West  Level FlightAware Approximate
09:51AM 52.3487 -33.7934 253° West  Level FlightAware Approximate
09:52AM 52.3141 -33.9804 253° West  Level FlightAware Approximate
09:53AM 52.2793 -34.1671 253° West  Level FlightAware Approximate
09:54AM 52.2442 -34.3535 253° West  Level FlightAware Approximate
09:55AM 52.2088 -34.5396 253° West  Level FlightAware Approximate
09:56AM 52.1730 -34.7254 253° West  Level FlightAware Approximate
09:57AM 52.1371 -34.9109 253° West  Level FlightAware Approximate
09:58AM 52.1008 -35.0961 252° West  Level FlightAware Approximate
09:59AM 52.0634 -35.2806 252° West  Level FlightAware Approximate
10:00AM 52.0257 -35.4648 252° West  Level FlightAware Approximate
10:01AM 51.9877 -35.6486 252° West  Level FlightAware Approximate
10:02AM 51.9495 -35.8322 251° West  Level FlightAware Approximate
10:03AM 51.9109 -36.0154 251° West  Level FlightAware Approximate
10:04AM 51.8721 -36.1983 251° West  Level FlightAware Approximate
10:05AM 51.8330 -36.3809 251° West  Level FlightAware Approximate
10:06AM 51.7936 -36.5631 251° West  Level FlightAware Approximate
10:07AM 51.7540 -36.7451 251° West  Level FlightAware Approximate
10:08AM 51.7140 -36.9267 251° West  Level FlightAware Approximate
10:09AM 51.6738 -37.1080 250° West  Level FlightAware Approximate
10:10AM 51.6333 -37.2890 250° West  Level FlightAware Approximate
10:11AM 51.5925 -37.4697 250° West  Level FlightAware Approximate
10:12AM 51.5518 -37.6502 250° West  Level FlightAware Approximate
10:13AM 51.5115 -37.8309 250° West  Level FlightAware Approximate
10:14AM 51.4710 -38.0112 250° West  Level FlightAware Approximate
10:15AM 51.4301 -38.1912 250° West  Level FlightAware Approximate
10:16AM 51.3890 -38.3708 250° West  Level FlightAware Approximate
10:17AM 51.3476 -38.5502 250° West  Level FlightAware Approximate
10:18AM 51.3059 -38.7292 250° West  Level FlightAware Approximate
10:19AM 51.2640 -38.9078 249° West  Level FlightAware Approximate
10:20AM 51.2218 -39.0862 249° West  Level FlightAware Approximate
10:21AM 51.1793 -39.2642 249° West  Level FlightAware Approximate
10:22AM 51.1365 -39.4419 249° West  Level FlightAware Approximate
10:23AM 51.0935 -39.6193 249° West  Level FlightAware Approximate
10:24AM 51.0502 -39.7963 249° West  Level FlightAware Approximate
10:25AM 51.0067 -39.9731 249° West  Level FlightAware Approximate
10:26AM 50.9627 -40.1493 248° West  Level FlightAware Approximate
10:27AM 50.9184 -40.3253 248° West  Level FlightAware Approximate
10:28AM 50.8739 -40.5008 248° West  Level FlightAware Approximate
10:29AM 50.8290 -40.6761 248° West  Level FlightAware Approximate
10:30AM 50.7840 -40.8510 248° West  Level FlightAware Approximate
10:31AM 50.7386 -41.0256 248° West  Level FlightAware Approximate
10:32AM 50.6931 -41.1998 248° West  Level FlightAware Approximate
10:33AM 50.6473 -41.3738 248° West  Level FlightAware Approximate
10:34AM 50.6015 -41.5476 248° West  Level FlightAware Approximate
10:35AM 50.5555 -41.7210 247° West  Level FlightAware Approximate
10:36AM 50.5092 -41.8941 247° West  Level FlightAware Approximate
10:37AM 50.4626 -42.0668 247° West  Level FlightAware Approximate
10:38AM 50.4158 -42.2392 247° West  Level FlightAware Approximate
10:39AM 50.3687 -42.4113 247° West  Level FlightAware Approximate
10:40AM 50.3214 -42.5830 247° West  Level FlightAware Approximate
10:41AM 50.2752 -42.7553 247° West  Level FlightAware Approximate
10:42AM 50.2289 -42.9274 247° West  Level FlightAware Approximate
10:43AM 50.1824 -43.0992 247° West  Level FlightAware Approximate
10:44AM 50.1357 -43.2706 247° West  Level FlightAware Approximate
10:45AM 50.0887 -43.4415 247° West  Level FlightAware Approximate
10:46AM 50.0414 -43.6121 247° West  Level FlightAware Approximate
10:47AM 49.9940 -43.7824 247° West  Level FlightAware Approximate
10:48AM 49.9462 -43.9523 246° West  Level FlightAware Approximate
10:49AM 49.8983 -44.1219 246° West  Level FlightAware Approximate
10:50AM 49.8500 -44.2912 246° West  Level FlightAware Approximate
10:51AM 49.8016 -44.4601 246° West  Level FlightAware Approximate
10:52AM 49.7528 -44.6287 246° West  Level FlightAware Approximate
10:53AM 49.7039 -44.7969 246° West  Level FlightAware Approximate
10:54AM 49.6547 -44.9648 246° West  Level FlightAware Approximate
10:55AM 49.6052 -45.1324 246° West  Level FlightAware Approximate
10:56AM 49.5546 -45.2990 245° Southwest  Level FlightAware Approximate
10:57AM 49.5035 -45.4650 245° Southwest  Level FlightAware Approximate
10:58AM 49.4523 -45.6308 245° Southwest  Level FlightAware Approximate
10:59AM 49.4008 -45.7962 244° Southwest  Level FlightAware Approximate
11:00AM 49.3491 -45.9613 244° Southwest  Level FlightAware Approximate
11:01AM 49.2971 -46.1260 244° Southwest  Level FlightAware Approximate
11:02AM 49.2449 -46.2903 244° Southwest  Level FlightAware Approximate
11:03AM 49.1925 -46.4543 244° Southwest  Level FlightAware Approximate
11:04AM 49.1399 -46.6180 244° Southwest  Level FlightAware Approximate
11:05AM 49.0870 -46.7813 244° Southwest  Level FlightAware Approximate
11:06AM 49.0339 -46.9443 244° Southwest  Level FlightAware Approximate
11:07AM 48.9805 -47.1069 243° Southwest  Level FlightAware Approximate
11:08AM 48.9269 -47.2692 243° Southwest  Level FlightAware Approximate
11:09AM 48.8731 -47.4311 243° Southwest  Level FlightAware Approximate
11:10AM 48.8191 -47.5927 243° Southwest  Level FlightAware Approximate
11:11AM 48.7659 -47.7547 244° Southwest  Level FlightAware Approximate
11:12AM 48.7126 -47.9165 243° Southwest  Level FlightAware Approximate
11:13AM 48.6590 -48.0778 243° Southwest  Level FlightAware Approximate
11:14AM 48.6051 -48.2389 243° Southwest  Level FlightAware Approximate
11:15AM 48.5511 -48.3996 243° Southwest  Level FlightAware Approximate
11:16AM 48.4968 -48.5599 243° Southwest  Level FlightAware Approximate
11:17AM 48.4423 -48.7199 243° Southwest  Level FlightAware Approximate
11:17AM 47.9600 -50.1480 243° Southwest 443 510 35,400  Level FlightAware
11:18AM 48.3876 -48.8796 243° Southwest  Level FlightAware Approximate
11:18AM 47.9410 -50.2640 256° West 442 509 36,300  Level FlightAware
11:19AM 47.9210 -50.3810 256° West 438 504 37,200 1,200 Climbing FlightAware
11:19AM 47.8980 -50.5140 256° West 436 502 38,000 600 Climbing FlightAware
11:20AM 47.8810 -50.6130 256° West 436 502 38,000  Level FlightAware
11:21AM 47.8600 -50.7340 256° West 436 502 38,000  Level FlightAware
11:21AM 47.8370 -50.8650 255° West 439 505 38,000  Level FlightAware
11:22AM 47.8170 -50.9770 255° West 439 505 38,000  Level FlightAware
11:23AM 47.7940 -51.1100 256° West 439 505 38,000  Level FlightAware
11:23AM 47.7730 -51.2270 255° West 439 505 38,000  Level FlightAware
11:24AM 47.7490 -51.3580 255° West 441 507 38,000  Level FlightAware
11:25AM 47.7280 -51.4740 255° West 440 506 38,000  Level FlightAware
11:25AM 47.7070 -51.5900 255° West 440 506 38,000  Level FlightAware
11:26AM 47.6830 -51.7200 255° West 439 505 38,000  Level FlightAware
11:27AM 47.6620 -51.8390 255° West 439 505 38,000  Level FlightAware
11:28AM 47.6380 -51.9680 255° West 439 505 38,000  Level FlightAware
11:28AM 47.6160 -52.0860 255° West 438 504 38,000  Level FlightAware
11:29AM 47.5950 -52.2000 255° West 438 504 38,000  Level FlightAware
11:30AM 47.5700 -52.3290 254° West 438 504 38,000  Level FlightAware
11:30AM 47.5460 -52.4580 255° West 436 502 38,000  Level FlightAware
11:31AM 47.5270 -52.5580 254° West 436 502 38,000  Level FlightAware
11:32AM 47.5020 -52.6890 254° West 433 498 38,000  Level FlightAware
11:32AM 47.4810 -52.8000 254° West 432 497 38,000  Level FlightAware
11:33AM 47.4540 -52.9310 253° West 431 496 38,000  Level FlightAware
11:34AM 47.4290 -53.0400 251° West 430 495 38,000  Level FlightAware
11:35AM 47.4000 -53.1680 252° West 430 495 38,000  Level FlightAware
11:35AM 47.3740 -53.2810 251° West 430 495 38,000  Level FlightAware
11:36AM 47.3520 -53.3780 252° West 430 495 38,000  Level FlightAware
11:37AM 47.3270 -53.4920 252° West 429 494 38,000  Level FlightAware
11:37AM 47.2990 -53.6120 251° West 430 495 38,000  Level FlightAware
11:38AM 47.2730 -53.7270 252° West 431 496 38,000  Level FlightAware
11:39AM 47.2470 -53.8400 251° West 430 495 38,000  Level FlightAware
11:39AM 47.2170 -53.9660 251° West 429 494 38,000  Level FlightAware
11:40AM 47.1920 -54.0760 252° West 431 496 38,000  Level FlightAware
11:41AM 47.1700 -54.1700 251° West 431 496 38,000  Level FlightAware
11:41AM 47.1400 -54.2960 251° West 431 496 38,000  Level FlightAware
11:42AM 47.1110 -54.4180 251° West 434 499 38,000  Level FlightAware
11:43AM 47.0900 -54.5040 250° West 433 498 38,000  Level FlightAware
11:43AM 47.0610 -54.6270 251° West 432 497 38,000  Level FlightAware
11:44AM 47.0350 -54.7360 251° West 431 496 38,000  Level FlightAware
11:45AM 47.0040 -54.8620 250° West 431 496 38,000  Level FlightAware
11:46AM 46.9790 -54.9670 251° West 431 496 38,000  Level FlightAware
11:46AM 46.9530 -55.0740 250° West 431 496 38,000  Level FlightAware
11:47AM 46.9220 -55.2000 250° West 429 494 38,000  Level FlightAware
11:48AM 46.8940 -55.3100 250° West 427 491 38,000  Level FlightAware
11:48AM 46.8640 -55.4320 250° West 427 491 38,000  Level FlightAware
11:49AM 46.8360 -55.5460 250° West 425 489 38,000  Level FlightAware
11:50AM 46.8100 -55.6480 250° West 425 489 38,000  Level FlightAware
11:50AM 46.7790 -55.7730 250° West 423 487 38,000  Level FlightAware
11:51AM 46.7510 -55.8810 249° West 423 487 38,000  Level FlightAware
11:52AM 46.7190 -56.0040 249° West 423 487 38,000  Level FlightAware
11:53AM 46.6800 -56.1620 250° West 422 486 38,000  Level FlightAware
11:54AM 46.6460 -56.2910 249° West 38,000  Level FlightAware
11:55AM 46.6040 -56.4530 249° West 422 486 38,000  Level FlightAware
11:56AM 46.5610 -56.6200 250° West 422 486 38,000  Level FlightAware
11:56AM 46.5390 -56.7000 248° West 422 486 38,000  Level FlightAware
11:57AM 46.5000 -56.8480 249° West 423 487 38,000  Level FlightAware
11:58AM 46.4600 -56.9970 249° West 422 486 38,000  Level FlightAware
11:59AM 46.4270 -57.1220 249° West 422 486 38,000  Level FlightAware
12:00PM 46.3980 -57.2290 249° West 424 488 38,000  Level FlightAware
12:00PM 46.3620 -57.3600 248° West 427 491 38,000  Level FlightAware
12:01PM 46.3270 -57.4890 249° West 427 491 38,000  Level FlightAware
12:02PM 46.2860 -57.6380 248° West 430 495 38,000  Level FlightAware
12:03PM 46.2490 -57.7710 248° West 432 497 38,000  Level FlightAware
12:04PM 46.2200 -57.8770 248° West 433 498 38,000  Level FlightAware
12:04PM 46.1910 -57.9790 248° West 436 502 38,000  Level FlightAware
12:05PM 46.1590 -58.0920 248° West 436 502 38,000  Level FlightAware
12:06PM 46.1280 -58.2020 248° West 437 503 38,000  Level FlightAware
12:06PM 46.0950 -58.3180 248° West 436 502 38,000  Level FlightAware
12:07PM 46.0660 -58.4200 248° West 435 501 38,000  Level FlightAware
12:08PM 46.0320 -58.5390 248° West 435 501 38,000  Level FlightAware
12:08PM 46.0000 -58.6490 247° West 434 499 38,000  Level FlightAware
12:09PM 45.9690 -58.7570 248° West 432 497 38,000  Level FlightAware
12:10PM 45.9390 -58.8580 247° West 431 496 38,000  Level FlightAware
12:10PM 45.9110 -58.9550 247° West 429 494 38,000  Level FlightAware
12:11PM 45.8730 -59.0810 247° West 428 493 38,000  Level FlightAware
12:12PM 45.8390 -59.1970 247° West 427 491 38,000  Level FlightAware
12:13PM 45.8120 -59.2890 247° West 426 490 38,000  Level FlightAware
12:13PM 45.7810 -59.3930 247° West 424 488 38,000  Level FlightAware
12:14PM 45.7500 -59.4940 246° West 423 487 38,000  Level FlightAware
12:14PM 45.7200 -59.5920 246° West 423 487 38,000  Level FlightAware
12:15PM 45.6960 -59.6740 247° West 424 488 38,000  Level FlightAware
12:16PM 45.6600 -59.7930 247° West 423 487 38,000  Level FlightAware
12:16PM 45.6280 -59.8940 246° West 423 487 38,000  Level FlightAware
12:17PM 45.5950 -60.0010 246° West 422 486 38,000  Level FlightAware
12:18PM 45.5620 -60.1090 246° West 423 487 38,000  Level FlightAware
12:19PM 45.5300 -60.2110 246° West 422 486 38,000  Level FlightAware
12:19PM 45.4940 -60.3270 246° West 421 484 38,000  Level FlightAware
12:20PM 45.4620 -60.4280 246° West 421 484 38,000  Level FlightAware
12:21PM 45.4290 -60.5330 246° West 421 484 38,000  Level FlightAware
12:21PM 45.3970 -60.6340 246° West 421 484 38,000  Level FlightAware
12:22PM 45.3690 -60.7240 246° West 420 483 38,000  Level FlightAware
12:23PM 45.3370 -60.8200 245° Southwest 420 483 38,000  Level FlightAware
12:23PM 45.3120 -60.8970 245° Southwest 420 483 38,000  Level FlightAware
12:24PM 45.2790 -60.9990 245° Southwest 420 483 38,000  Level FlightAware
12:25PM 45.2540 -61.0760 245° Southwest 420 483 38,000  Level FlightAware
12:25PM 45.2190 -61.1800 244° Southwest 420 483 38,000  Level FlightAware
12:26PM 45.1940 -61.2560 245° Southwest 420 483 38,000  Level FlightAware
12:27PM 45.1690 -61.3330 245° Southwest 420 483 38,000  Level FlightAware
12:27PM 45.1350 -61.4350 245° Southwest 420 483 38,000  Level FlightAware
12:28PM 45.1100 -61.5110 245° Southwest 420 483 38,000  Level FlightAware
12:29PM 45.0770 -61.6130 245° Southwest 420 483 38,000  Level FlightAware
12:29PM 45.0510 -61.6910 245° Southwest 420 483 38,000  Level FlightAware
12:30PM 45.0190 -61.7890 245° Southwest 420 483 38,000  Level FlightAware
12:31PM 44.9940 -61.8650 245° Southwest 420 483 38,000  Level FlightAware
12:32PM 44.9590 -61.9690 245° Southwest 420 483 38,000  Level FlightAware
12:35PM 44.7440 -62.6110 245° Southwest 38,000  Level FlightAware
12:36PM 44.6920 -62.7640 244° Southwest 419 482 38,000  Level FlightAware
12:36PM 44.6560 -62.8680 244° Southwest 419 482 38,000  Level FlightAware
12:37PM 44.6180 -62.9760 244° Southwest 418 481 38,000  Level FlightAware
12:38PM 44.5780 -63.0910 244° Southwest 417 480 38,000  Level FlightAware
12:39PM 44.5480 -63.1780 244° Southwest 417 480 38,000  Level FlightAware
12:39PM 44.5090 -63.2890 244° Southwest 416 479 38,000  Level FlightAware
12:40PM 44.4920 -63.3380 244° Southwest 416 479 38,000  Level FlightAware
12:40PM 44.4580 -63.4350 244° Southwest 415 478 38,000  Level FlightAware
12:41PM 44.4250 -63.5290 244° Southwest 415 478 38,000  Level FlightAware
12:42PM 44.3920 -63.6210 243° Southwest 414 476 38,000  Level FlightAware
12:42PM 44.3510 -63.7370 244° Southwest 413 475 38,000  Level FlightAware
12:43PM 44.3120 -63.8460 243° Southwest 412 474 38,000  Level FlightAware
12:44PM 44.2820 -63.9320 244° Southwest 411 473 38,000  Level FlightAware
12:44PM 44.2510 -64.0190 244° Southwest 411 473 38,000  Level FlightAware
12:45PM 44.2160 -64.1170 244° Southwest 410 472 38,000  Level FlightAware
12:46PM 44.1830 -64.2090 243° Southwest 411 473 38,000  Level FlightAware
12:46PM 44.1420 -64.3230 243° Southwest 406 467 38,000  Level FlightAware
12:47PM 44.1070 -64.4180 243° Southwest 407 468 38,000  Level FlightAware
12:48PM 44.0730 -64.5120 243° Southwest 410 472 38,000  Level FlightAware
12:49PM 44.0300 -64.6290 243° Southwest 407 468 38,000  Level FlightAware
12:49PM 43.9910 -64.7370 243° Southwest 407 468 38,000  Level FlightAware
12:50PM 43.9660 -64.8070 244° Southwest 407 468 38,000  Level FlightAware
12:50PM 43.9350 -64.8900 243° Southwest 408 470 38,000  Level FlightAware
12:51PM 43.8970 -64.9930 243° Southwest 408 470 38,000  Level FlightAware
12:52PM 43.8580 -65.1010 243° Southwest 409 471 38,000  Level FlightAware
12:53PM 43.8230 -65.1950 243° Southwest 409 471 38,000  Level FlightAware
12:53PM 43.7840 -65.3010 243° Southwest 409 471 38,000  Level FlightAware
12:54PM 43.7570 -65.3720 242° Southwest 410 472 38,000  Level FlightAware
12:55PM 43.7190 -65.4760 243° Southwest 410 472 38,000  Level FlightAware
12:55PM 43.6830 -65.5710 242° Southwest 410 472 38,000  Level FlightAware
12:56PM 43.6440 -65.6760 243° Southwest 410 472 38,000  Level FlightAware
12:57PM 43.6090 -65.7680 242° Southwest 410 472 38,000  Level FlightAware
12:57PM 43.5700 -65.8740 243° Southwest 410 472 38,000  Level FlightAware
12:58PM 43.5350 -65.9670 243° Southwest 414 476 38,000  Level FlightAware
12:59PM 43.5030 -66.0500 242° Southwest 415 478 38,000  Level FlightAware
12:59PM 43.4640 -66.1540 243° Southwest 415 478 38,000  Level FlightAware
01:00PM 43.4220 -66.2630 242° Southwest 415 478 38,000  Level FlightAware
01:01PM 43.3620 -66.4190 242° Southwest 416 479 38,000  Level FlightAware
01:02PM 43.3280 -66.5080 242° Southwest 416 479 38,000  Level FlightAware
01:03PM 43.3010 -66.5790 242° Southwest 416 479 38,000  Level FlightAware
01:05PM 43.1610 -66.9430 242° Southwest 38,000  Level FlightAware
01:06PM 43.1230 -67.0700 248° West 414 476 38,000  Level FlightAware
01:07PM 43.1100 -67.1430 256° West 415 478 38,000  Level FlightAware
01:07PM 43.0950 -67.2230 256° West 415 478 38,000  Level FlightAware
01:08PM 43.0810 -67.3010 256° West 415 478 38,000  Level FlightAware
01:08PM 43.0670 -67.3790 256° West 415 478 38,000  Level FlightAware
01:09PM 43.0480 -67.4830 256° West 415 478 38,000  Level FlightAware
01:10PM 43.0170 -67.6700 257° West 415 478 38,000  Level FlightAware
01:11PM 42.9960 -67.7860 256° West 413 475 38,000  Level FlightAware
01:12PM 42.9710 -67.9180 256° West 412 474 38,000  Level FlightAware
01:12PM 42.9490 -68.0390 256° West 410 472 38,000  Level FlightAware
01:13PM 42.9340 -68.1220 256° West 409 471 38,000  Level FlightAware
01:14PM 42.9150 -68.2270 256° West 408 470 38,000  Level FlightAware
01:14PM 42.8940 -68.3390 256° West 407 468 38,000  Level FlightAware
01:15PM 42.8750 -68.4400 256° West 407 468 38,000  Level FlightAware
01:16PM 42.8540 -68.5480 255° West 408 470 38,000  Level FlightAware
01:16PM 42.8350 -68.6500 256° West 407 468 38,000  Level FlightAware
01:17PM 42.8130 -68.7650 255° West 407 468 38,000  Level FlightAware
01:18PM 42.7940 -68.8620 255° West 407 468 38,000  Level FlightAware
01:19PM 42.7760 -68.9590 256° West 406 467 38,000  Level FlightAware
01:19PM 42.7530 -69.0730 255° West 406 467 38,000  Level FlightAware
01:20PM 42.7250 -69.1460 242° Southwest 404 465 38,000  Level FlightAware
01:20PM 42.7010 -69.1780 224° Southwest 412 474 38,000  Level FlightAware
01:21PM 42.6360 -69.2320 211° Southwest 410 472 38,000  Level FlightAware
01:22PM 42.5480 -69.3070 212° Southwest 408 470 38,000 -480 Level FlightAware
01:23PM 42.4920 -69.4680 245° Southwest 405 466 37,000 -780 Descending FlightAware
01:23PM 42.4910 -69.5060 268° West 420 483 37,000  Level FlightAware
01:24PM 42.4860 -69.6370 267° West 424 488 37,000  Level FlightAware
01:25PM 42.4750 -69.7400 262° West 424 488 37,000  Level FlightAware
01:25PM 42.4660 -69.8380 263° West 424 488 37,000 -540 Level FlightAware
01:26PM 42.4540 -69.9660 263° West 421 484 36,300 -1,740 Descending FlightAware
01:27PM 42.4430 -70.0850 263° West 424 488 34,400 -2,520 Descending FlightAware
01:27PM 42.4340 -70.1830 263° West 424 488 32,800 -2,580 Descending FlightAware
01:28PM 42.4250 -70.2840 263° West 426 490 31,000 -2,820 Descending FlightAware
01:29PM 42.4140 -70.3930 262° West 426 490 29,100 -2,160 Descending FlightAware
01:30PM 42.4020 -70.5140 262° West 412 474 28,000 -780 Descending FlightAware
01:30PM 42.3910 -70.6250 262° West 423 487 28,000 -240 Level FlightAware
01:31PM 42.3790 -70.7370 262° West 424 488 27,700 -1,380 Descending FlightAware
01:32PM 42.3690 -70.8320 262° West 416 479 26,300 -2,220 Descending FlightAware
01:32PM 42.3580 -70.9450 263° West 406 467 24,700 -1,620 Descending FlightAware
01:33PM 42.3420 -71.0550 259° West 407 468 23,900 -840 Descending FlightAware
01:34PM 42.3110 -71.1890 253° West 403 464 23,300 -720 Descending FlightAware
01:35PM 42.2840 -71.2980 252° West 403 464 22,700 -720 Descending FlightAware
01:35PM 42.2610 -71.3940 252° West 399 459 22,300 -600 Descending FlightAware
01:36PM 42.2440 -71.4660 252° West 400 460 22,000 -240 Descending FlightAware
01:37PM 42.2190 -71.5700 252° West 377 434 22,000  Level FlightAware
01:37PM 42.1970 -71.6590 252° West 372 428 22,000  Level FlightAware
01:38PM 42.1790 -71.7310 251° West 371 427 22,000  Level FlightAware
01:39PM 42.1560 -71.8240 252° West 374 430 22,000 -540 Level FlightAware
01:39PM 42.1300 -71.9320 252° West 379 436 21,200 -1,020 Descending FlightAware
01:40PM 42.1020 -72.0440 251° West 382 440 20,200 -1,080 Descending FlightAware
01:41PM 42.0710 -72.1650 251° West 398 458 19,400 -540 Descending FlightAware
01:42PM 42.0450 -72.2670 251° West 398 458 19,400  Level FlightAware
01:43PM 42.0260 -72.3390 250° West 398 458 19,400  Level FlightAware
01:43PM 42.0080 -72.4120 252° West 398 458 19,400  Level FlightAware
01:44PM 41.9850 -72.5000 251° West 398 458 19,400  Level FlightAware
01:44PM 41.9670 -72.5720 251° West 398 458 19,400 -2,220 Level FlightAware
01:45PM 41.9311 -72.7247 251° West 385 443 16,000 -1,800 Descending Boston Center
01:46PM 41.9017 -72.8556 253° West 380 437 16,000 -780 Level Boston Center
01:52PM 41.7100 -73.6040 253° West 300 345 10,800 -840 Descending FlightAware
01:53PM 41.6950 -73.6630 251° West 300 345 10,800 -480 Level FlightAware
01:54PM 41.6576 -73.8091 251° West 294 338 9,900 -480 Descending FlightAware ADS-B
01:55PM 41.6420 -73.8720 252° West 295 339 9,900  Level FlightAware
01:55PM 41.6330 -73.9080 252° West 297 342 9,900  Level FlightAware
01:56PM 41.6207 -73.9588 252° West 299 344 9,900  Level FlightAware ADS-B
01:57PM 41.5980 -74.0540 252° West 298 343 9,900  Level FlightAware
01:57PM 41.5890 -74.0900 252° West 298 343 9,900 -780 Level FlightAware
02:01PM 41.3955 -74.3577 226° Southwest 283 326 6,900 -420 Descending FlightAware ADS-B
02:05PM 41.0887 -74.4358 191° South 234 269 6,900  Level FlightAware ADS-B
02:06PM 41.0748 -74.4356 179° South 237 273 6,900  Level FlightAware ADS-B
02:06PM 41.0707 -74.4354 178° South 234 269 6,900  Level FlightAware ADS-B
02:06PM 41.0570 -74.4353 180° South 236 272 6,900  Level FlightAware ADS-B
02:06PM 41.0530 -74.4353 180° South 236 272 6,900  Level FlightAware ADS-B
02:06PM 41.0379 -74.4353 180° South 235 270 6,900  Level FlightAware ADS-B
02:06PM 41.0344 -74.4353 180° South 235 270 6,900  Level FlightAware ADS-B
02:06PM 41.0176 -74.4355 181° South 236 272 6,900  Level FlightAware ADS-B
02:06PM 41.0142 -74.4360 186° South 237 273 6,900  Level FlightAware ADS-B
02:07PM 41.0077 -74.4380 193° South 240 276 6,900  Level FlightAware ADS-B
02:07PM 41.0010 -74.4425 207° Southwest 242 278 6,900  Level FlightAware ADS-B
02:07PM 40.9974 -74.4461 217° Southwest 243 280 6,900  Level FlightAware ADS-B
02:07PM 40.9943 -74.4502 225° Southwest 243 280 6,900 -600 Level FlightAware ADS-B
02:07PM 40.9904 -74.4576 235° Southwest 244 281 6,800 -1,020 Descending FlightAware ADS-B
02:07PM 40.9876 -74.4660 246° West 235 270 6,700 -1,020 Descending FlightAware ADS-B
02:07PM 40.9859 -74.4744 255° West 243 280 6,600 -1,200 Descending FlightAware ADS-B
02:08PM 40.9745 -74.5470 258° West 244 281 5,600 -960 Descending FlightAware ADS-B
02:09PM 40.9600 -74.6280 257° West 242 278 4,900 -660 Descending FlightAware
02:09PM 40.9370 -74.6210 167° South 235 270 4,900  Level FlightAware
02:10PM 40.9061 -74.6224 182° South 234 269 4,900  Level FlightAware ADS-B
02:10PM 40.8969 -74.6224 180° South 233 268 4,900  Level FlightAware ADS-B
02:10PM 40.8746 -74.6226 180° South 234 269 4,900  Level FlightAware ADS-B
02:10PM 40.8576 -74.6228 181° South 232 267 4,900  Level FlightAware ADS-B
02:11PM 40.8382 -74.6229 180° South 231 266 4,900  Level FlightAware ADS-B
02:11PM 40.8214 -74.6231 181° South 234 269 4,900  Level FlightAware ADS-B
02:11PM 40.8154 -74.6233 181° South 232 267 4,900  Level FlightAware ADS-B
02:11PM 40.7922 -74.6236 181° South 230 265 4,900  Level FlightAware ADS-B
02:12PM 40.7660 -74.6243 181° South 230 265 4,900  Level FlightAware ADS-B
02:12PM 40.7622 -74.6243 180° South 232 267 4,900  Level FlightAware ADS-B
02:12PM 40.7440 -74.6248 181° South 232 267 4,900  Level FlightAware ADS-B
02:12PM 40.7248 -74.6253 181° South 232 267 4,900  Level FlightAware ADS-B
02:13PM 40.6996 -74.6260 181° South 234 269 4,900  Level FlightAware ADS-B
02:13PM 40.6757 -74.6267 181° South 234 269 4,900  Level FlightAware ADS-B
02:14PM 40.6449 -74.6276 181° South 234 269 4,900  Level FlightAware ADS-B
02:14PM 40.6286 -74.6282 182° South 236 272 4,900  Level FlightAware ADS-B
02:14PM 40.5940 -74.6329 186° South 235 270 4,900  Level FlightAware ADS-B
02:15PM 40.5530 -74.6530 200° South 238 274 4,900  Level FlightAware
02:16PM 40.5230 -74.6680 201° Southwest 241 277 4,900  Level FlightAware
02:16PM 40.4970 -74.6810 201° Southwest 242 278 4,900  Level FlightAware
02:16PM 40.4730 -74.6930 201° Southwest 241 277 4,900  Level FlightAware
02:17PM 40.4470 -74.7070 202° Southwest 242 278 4,900  Level FlightAware
02:17PM 40.4240 -74.7183 201° Southwest 241 277 4,900  Level FlightAware ADS-B
02:17PM 40.4065 -74.7273 201° Southwest 242 278 4,900  Level FlightAware ADS-B
02:18PM 40.3909 -74.7350 201° Southwest 241 277 4,900  Level FlightAware ADS-B
02:18PM 40.3746 -74.7432 201° Southwest 240 276 4,900  Level FlightAware ADS-B
02:18PM 40.3569 -74.7523 201° Southwest 227 261 4,900  Level FlightAware ADS-B
02:18PM 40.3416 -74.7602 201° Southwest 207 238 4,900  Level FlightAware ADS-B
02:19PM 40.3277 -74.7676 202° Southwest 198 228 4,900  Level FlightAware ADS-B
02:19PM 40.3229 -74.7702 202° Southwest 197 227 4,900  Level FlightAware ADS-B
02:19PM 40.3196 -74.7715 197° South 195 224 4,900  Level FlightAware ADS-B
02:19PM 40.3154 -74.7725 190° South 190 219 4,900  Level FlightAware ADS-B
02:19PM 40.3114 -74.7721 176° South 187 215 4,900  Level FlightAware ADS-B
02:19PM 40.3068 -74.7702 163° South 182 209 4,900  Level FlightAware ADS-B
02:19PM 40.3028 -74.7670 149° Southeast 175 201 4,900  Level FlightAware ADS-B
02:19PM 40.3008 -74.7640 131° Southeast 173 199 4,900  Level FlightAware ADS-B
02:19PM 40.2989 -74.7602 123° Southeast 171 197 4,900  Level FlightAware ADS-B
02:19PM 40.2980 -74.7572 111° Southeast 169 194 4,900  Level FlightAware ADS-B
02:19PM 40.2973 -74.7534 104° East 167 192 4,900  Level FlightAware ADS-B
02:20PM 40.2973 -74.7499 90° East 166 191 4,900  Level FlightAware ADS-B
02:20PM 40.2977 -74.7451 84° East 167 192 4,900  Level FlightAware ADS-B
02:20PM 40.2996 -74.7269 82° East 174 200 4,900 -240 Level FlightAware ADS-B
02:20PM 40.3001 -74.7101 88° East 189 217 4,800 -780 Descending FlightAware ADS-B
02:20PM 40.3004 -74.6887 89° East 190 219 4,500 -900 Descending FlightAware ADS-B
02:21PM 40.3006 -74.6705 89° East 186 214 4,300 -960 Descending FlightAware ADS-B
02:21PM 40.3006 -74.6530 90° East 183 211 4,000 -780 Descending FlightAware ADS-B
02:21PM 40.3008 -74.6359 89° East 184 212 3,900 -240 Descending FlightAware ADS-B
02:22PM 40.3008 -74.6188 90° East 184 212 3,900  Level FlightAware ADS-B
02:22PM 40.3008 -74.6001 90° East 186 214 3,900  Level FlightAware ADS-B
02:22PM 40.3008 -74.5816 90° East 188 216 3,900  Level FlightAware ADS-B
02:22PM 40.3008 -74.5599 90° East 188 216 3,900  Level FlightAware ADS-B
02:23PM 40.3010 -74.5130 90° East 184 212 3,900  Level FlightAware
02:23PM 40.3010 -74.4920 90° East 184 212 3,900 -120 Level FlightAware
02:24PM 40.3013 -74.4505 89° East 180 207 3,800 -480 Descending FlightAware ADS-B
02:24PM 40.3015 -74.4279 89° East 179 206 3,500 -1,020 Descending FlightAware ADS-B
02:25PM 40.3018 -74.4107 89° East 179 206 3,200 -1,200 Descending FlightAware ADS-B